Timber Lake, Colorado
Current Conditions -  °F | °C
As of 10:53 AM on Thursday 23 Oct 2014 (Local Time) from KLHX Reporting Station
Clear Clear  
Wind Chill: 64°   Ceiling: Unl
Heat Index: 64°   Visibility: 10mi
Dew Point: 47°   Wind: 7mph
Humidity: 54%   Direction: 220°SW
Pressure: 30.17"   Gusts: NA
Location:  37.8368°N, 103.544°W
Report Text: KLHX 231653Z AUTO 22006KT 10SM CLR 18/08 A3017 RMK AO2 SLP181 T01780083
Loading
Personal Weather Stations






























Interactive Weather Map
Tropical Storm Tracking
New forecast layout! Learn more

10-Day Weather Forecast

Advertisements
Track Severe Weather on mobile